Terminal Aerodrome Forecast
Issued by NWS

Home | Current Version | Previous Version | Text Only | Print | Product List | Glossary On
Versions: 1 2 3 4 5 6 7 8 9 10 11 12 13 14 15
708
FTUS46 KSEW 220520
TAFCLM
TAF
KCLM 220520Z 2206/2306 26008KT P6SM SCT015 OVC050
     FM221000 25006KT P6SM SCT020 BKN050 OVC100
      TEMPO 2214/2218 6SM -SHRA BR SCT010 OVC015
     FM221800 33005KT P6SM SCT030 SCT050 SCT200=

USA.gov is the U.S. government's official web portal to all federal, state and local government web resources and services.